Time;durP1;ratioP1;P1;durP2;ratioP2;P2;SDS_P1;SDS_P2;PMS_P1;PMS_P2;Temp;Humidity;BMP_temperature;BMP_pressure;BME280_temperature;BME280_humidity;BME280_pressure;Samples;Min_cycle;Max_cycle;Signal;HPM_P1;HPM_P2
2023/04/05 00:00:09;;;;;;;166.67;63.37;;;;;;;;;;6272085;28;20025;-83
2023/04/05 00:03:10;;;;;;;134.38;56.00;;;;;;;;;;6271856;28;20454;-83
2023/04/05 00:06:12;;;;;;;129.67;49.40;;;;;;;;;;6271866;28;20025;-83
2023/04/05 00:09:12;;;;;;;131.40;49.53;;;;;;;;;;6272038;28;20028;-84
2023/04/05 00:12:13;;;;;;;121.33;47.57;;;;;;;;;;6271196;28;20084;-84
2023/04/05 00:15:15;;;;;;;111.57;43.17;;;;;;;;;;6270686;28;20036;-83
2023/04/05 00:18:21;;;;;;;118.43;45.65;;;;;;;;;;6271696;28;20274;-84
2023/04/05 00:21:22;;;;;;;125.30;51.05;;;;;;;;;;6271196;28;20048;-84
2023/04/05 00:24:23;;;;;;;105.80;43.97;;;;;;;;;;6252938;28;20498;-83
2023/04/05 00:27:23;;;;;;;85.30;39.65;;;;;;;;;;6270823;28;20024;-83
2023/04/05 00:30:24;;;;;;;79.73;35.13;;;;;;;;;;6253668;28;20025;-83
2023/04/05 00:33:24;;;;;;;90.03;36.27;;;;;;;;;;6236630;28;20017;-84
2023/04/05 00:36:25;;;;;;;84.70;36.67;;;;;;;;;;6270563;28;20071;-84
2023/04/05 00:39:26;;;;;;;70.77;32.60;;;;;;;;;;6270985;28;20455;-84
2023/04/05 00:42:26;;;;;;;84.68;36.83;;;;;;;;;;6270756;28;20020;-84
2023/04/05 00:45:27;;;;;;;92.80;35.67;;;;;;;;;;6271150;28;20028;-84
2023/04/05 00:48:27;;;;;;;90.73;33.60;;;;;;;;;;6253060;28;20017;-83
2023/04/05 00:51:29;;;;;;;85.10;32.07;;;;;;;;;;6269697;28;20132;-83
2023/04/05 00:54:29;;;;;;;;;;;;;;;;;;6271753;28;20017;-83
2023/04/05 00:57:29;;;;;;;76.95;33.40;;;;;;;;;;6270473;28;20436;-83
2023/04/05 01:00:30;;;;;;;82.73;34.10;;;;;;;;;;6268954;28;20036;-83
2023/04/05 01:03:33;;;;;;;66.60;32.67;;;;;;;;;;6270458;28;20025;-83
2023/04/05 01:06:33;;;;;;;83.72;31.92;;;;;;;;;;6270850;28;20021;-84
2023/04/05 01:09:33;;;;;;;66.70;32.60;;;;;;;;;;6270198;28;20116;-83
2023/04/05 01:12:35;;;;;;;69.70;36.05;;;;;;;;;;6270337;28;20017;-84
2023/04/05 01:15:35;;;;;;;69.80;31.17;;;;;;;;;;6269995;28;20364;-84
2023/04/05 01:18:36;;;;;;;74.63;37.00;;;;;;;;;;6270167;28;20021;-84
2023/04/05 01:21:44;;;;;;;82.25;33.70;;;;;;;;;;6270147;28;20024;-83
2023/04/05 01:25:18;;;;;;;72.70;33.78;;;;;;;;;;6270008;28;20540;-84
2023/04/05 01:28:24;;;;;;;80.20;36.40;;;;;;;;;;6226325;28;20379;-84
2023/04/05 01:31:46;;;;;;;82.57;39.45;;;;;;;;;;6259694;28;20030;-84
2023/04/05 01:34:50;;;;;;;93.53;40.65;;;;;;;;;;6267353;28;20047;-84
2023/04/05 01:37:54;;;;;;;98.55;43.35;;;;;;;;;;6268341;28;20017;-84
2023/04/05 01:40:56;;;;;;;103.22;44.88;;;;;;;;;;6275253;28;20056;-83
2023/04/05 01:43:57;;;;;;;102.32;49.15;;;;;;;;;;6282376;28;20011;-83
2023/04/05 01:46:57;;;;;;;93.60;45.87;;;;;;;;;;6301250;28;20001;-83
2023/04/05 01:49:57;;;;;;;79.20;37.28;;;;;;;;;;6292911;28;20119;-83
2023/04/05 01:52:57;;;;;;;77.17;33.03;;;;;;;;;;6300792;28;20111;-84
2023/04/05 01:56:01;;;;;;;82.17;37.70;;;;;;;;;;6301575;28;20043;-84
2023/04/05 01:59:01;;;;;;;100.15;46.55;;;;;;;;;;6283944;28;20009;-84
2023/04/05 02:02:01;;;;;;;85.47;41.37;;;;;;;;;;6283806;28;20040;-84
2023/04/05 02:05:01;;;;;;;78.27;36.27;;;;;;;;;;6270477;28;20021;-84
2023/04/05 02:08:02;;;;;;;75.85;34.70;;;;;;;;;;6267136;28;20154;-85
2023/04/05 02:11:02;;;;;;;74.30;35.60;;;;;;;;;;6260036;28;20554;-83
2023/04/05 02:14:03;;;;;;;76.70;38.03;;;;;;;;;;6281279;28;20474;-84
2023/04/05 02:17:03;;;;;;;73.73;36.93;;;;;;;;;;6269869;28;20479;-84
2023/04/05 02:20:06;;;;;;;75.63;31.87;;;;;;;;;;6270058;28;20083;-84
2023/04/05 02:23:07;;;;;;;79.35;35.53;;;;;;;;;;6269925;28;20021;-83
2023/04/05 02:26:07;;;;;;;78.38;35.28;;;;;;;;;;6282039;28;20020;-84
2023/04/05 02:29:08;;;;;;;77.87;39.10;;;;;;;;;;6280947;28;20483;-84
2023/04/05 02:32:08;;;;;;;87.87;39.33;;;;;;;;;;6269337;28;20510;-84
2023/04/05 02:35:12;;;;;;;75.80;35.85;;;;;;;;;;6269478;28;20052;-85
2023/04/05 02:38:12;;;;;;;75.40;36.80;;;;;;;;;;6251988;28;20126;-84
2023/04/05 02:41:13;;;;;;;67.33;31.87;;;;;;;;;;6267742;28;20028;-85
2023/04/05 02:44:13;;;;;;;80.90;32.60;;;;;;;;;;6249323;28;20427;-85
2023/04/05 02:47:20;;;;;;;67.67;31.37;;;;;;;;;;6265482;28;20110;-84
2023/04/05 02:50:22;;;;;;;73.38;34.25;;;;;;;;;;6268508;28;20440;-85
2023/04/05 02:53:22;;;;;;;76.53;33.88;;;;;;;;;;6268614;28;20028;-85
2023/04/05 02:56:23;;;;;;;69.70;31.53;;;;;;;;;;6269206;28;20010;-84
2023/04/05 02:59:23;;;;;;;60.72;26.10;;;;;;;;;;6268970;28;20430;-85
2023/04/05 03:02:24;;;;;;;75.53;33.53;;;;;;;;;;6268233;28;20013;-84
2023/04/05 03:05:24;;;;;;;66.03;32.63;;;;;;;;;;6248275;28;20036;-84
2023/04/05 03:08:24;;;;;;;80.50;32.83;;;;;;;;;;6267854;28;20021;-84
2023/04/05 03:11:24;;;;;;;72.73;33.57;;;;;;;;;;6249823;28;20013;-84
2023/04/05 03:14:24;;;;;;;80.77;35.67;;;;;;;;;;6250940;28;20059;-84
2023/04/05 03:17:25;;;;;;;91.65;35.05;;;;;;;;;;6268293;28;20696;-83
2023/04/05 03:20:26;;;;;;;77.43;33.63;;;;;;;;;;6268399;28;20021;-83
2023/04/05 03:23:30;;;;;;;72.65;30.50;;;;;;;;;;6267701;28;20009;-83
2023/04/05 03:26:32;;;;;;;72.97;34.27;;;;;;;;;;6255208;28;20025;-83
2023/04/05 03:29:32;;;;;;;60.20;29.88;;;;;;;;;;6255060;28;20066;-84
2023/04/05 03:32:32;;;;;;;60.47;29.90;;;;;;;;;;6254159;28;20465;-84
2023/04/05 03:35:32;;;;;;;56.10;27.27;;;;;;;;;;6272434;28;20387;-85
2023/04/05 03:38:35;;;;;;;71.97;29.90;;;;;;;;;;6272478;28;20024;-84
2023/04/05 03:41:35;;;;;;;;;;;;;;;;;;6272264;28;20542;-84
2023/04/05 03:44:35;;;;;;;62.65;30.70;;;;;;;;;;6265201;28;19955;-84
2023/04/05 03:47:36;;;;;;;60.35;25.98;;;;;;;;;;6271685;28;20032;-84
2023/04/05 03:50:36;;;;;;;57.53;29.13;;;;;;;;;;6269850;28;20116;-84
2023/04/05 03:53:37;;;;;;;58.53;28.67;;;;;;;;;;6270636;28;20056;-83
2023/04/05 03:56:37;;;;;;;63.77;29.47;;;;;;;;;;6272138;28;20106;-82
2023/04/05 03:59:37;;;;;;;64.10;28.40;;;;;;;;;;6272831;28;20113;-83
2023/04/05 04:02:37;;;;;;;82.37;33.37;;;;;;;;;;6271809;28;20021;-83
2023/04/05 04:05:39;;;;;;;69.15;31.50;;;;;;;;;;6254355;28;20116;-84
2023/04/05 04:08:39;;;;;;;;;;;;;;;;;;6272136;28;20025;-83
2023/04/05 04:11:41;;;;;;;67.55;29.77;;;;;;;;;;6271655;28;19951;-83
2023/04/05 04:14:42;;;;;;;72.13;32.83;;;;;;;;;;6270987;28;20057;-82
2023/04/05 04:17:42;;;;;;;71.07;29.73;;;;;;;;;;6271573;28;20442;-83
2023/04/05 04:20:43;;;;;;;70.72;31.75;;;;;;;;;;6253130;28;20474;-83
2023/04/05 04:23:44;;;;;;;77.10;30.20;;;;;;;;;;6271186;28;20784;-82
2023/04/05 04:26:47;;;;;;;69.45;28.55;;;;;;;;;;6272286;28;20025;-83
2023/04/05 04:30:00;;;;;;;56.28;27.60;;;;;;;;;;6252185;28;20123;-84
2023/04/05 04:33:03;;;;;;;58.30;23.45;;;;;;;;;;6271151;28;20032;-85
2023/04/05 04:36:05;;;;;;;62.67;27.73;;;;;;;;;;6271011;28;20005;-85
2023/04/05 04:39:06;;;;;;;77.80;32.85;;;;;;;;;;6270530;28;20321;-84
2023/04/05 04:42:10;;;;;;;67.73;32.53;;;;;;;;;;6271251;28;20029;-86
2023/04/05 04:45:21;;;;;;;72.63;30.88;;;;;;;;;;6241317;28;20040;-85
2023/04/05 04:48:22;;;;;;;79.47;40.60;;;;;;;;;;6270973;28;20028;-85
2023/04/05 04:51:22;;;;;;;68.20;33.05;;;;;;;;;;6268588;28;20609;-86
2023/04/05 04:54:23;;;;;;;92.73;41.33;;;;;;;;;;6267505;28;20032;-86
2023/04/05 04:57:24;;;;;;;68.72;30.52;;;;;;;;;;6271402;28;20029;-85
2023/04/05 05:00:26;;;;;;;84.03;38.78;;;;;;;;;;6269130;28;20816;-86
2023/04/05 05:03:30;;;;;;;75.60;35.55;;;;;;;;;;6271910;28;20017;-86
2023/04/05 05:06:32;;;;;;;63.53;28.67;;;;;;;;;;6252680;28;20033;-86
2023/04/05 05:09:32;;;;;;;55.33;26.73;;;;;;;;;;6270497;28;20044;-87
2023/04/05 05:12:33;;;;;;;53.27;28.37;;;;;;;;;;6277445;28;20009;-85
2023/04/05 05:15:33;;;;;;;43.60;25.38;;;;;;;;;;6284271;28;20013;-88
2023/04/05 05:18:35;;;;;;;58.10;26.77;;;;;;;;;;6295421;28;20033;-88
2023/04/05 05:21:35;;;;;;;;;;;;;;;;;;6275821;28;20103;-88
2023/04/05 05:24:36;;;;;;;78.78;36.42;;;;;;;;;;6266437;28;19909;-88
2023/04/05 05:27:36;;;;;;;101.33;42.03;;;;;;;;;;6280578;28;20017;-89
2023/04/05 05:30:36;;;;;;;81.47;40.33;;;;;;;;;;6298220;28;20013;-89
2023/04/05 05:33:36;;;;;;;115.78;46.92;;;;;;;;;;6301300;28;20020;-91
2023/04/05 05:36:36;;;;;;;148.75;66.82;;;;;;;;;;6283132;28;20040;-89
2023/04/05 05:39:38;;;;;;;138.77;60.87;;;;;;;;;;6288269;28;20021;-89
2023/04/05 05:42:38;;;;;;;120.68;52.00;;;;;;;;;;6259916;28;20017;-89
2023/04/05 05:45:39;;;;;;;99.97;47.47;;;;;;;;;;6277249;28;20052;-84
2023/04/05 05:48:40;;;;;;;98.77;49.50;;;;;;;;;;6280516;28;20051;-86
2023/04/05 05:51:42;;;;;;;81.23;42.50;;;;;;;;;;6287113;28;20059;-88
2023/04/05 05:54:42;;;;;;;96.28;44.78;;;;;;;;;;6274075;28;20032;-87
2023/04/05 05:57:42;;;;;;;81.80;41.27;;;;;;;;;;6264711;28;20033;-87
2023/04/05 06:00:43;;;;;;;86.60;38.97;;;;;;;;;;6271209;28;20119;-87
2023/04/05 06:03:43;;;;;;;112.73;46.93;;;;;;;;;;6269935;28;20021;-85
2023/04/05 06:06:45;;;;;;;97.80;46.87;;;;;;;;;;6270891;28;20311;-87
2023/04/05 06:09:46;;;;;;;88.18;43.67;;;;;;;;;;6263916;28;20549;-88
2023/04/05 06:12:46;;;;;;;95.57;46.20;;;;;;;;;;6264671;28;20013;-86
2023/04/05 06:15:47;;;;;;;104.00;46.33;;;;;;;;;;6250829;28;20560;-86
2023/04/05 06:18:48;;;;;;;86.27;41.83;;;;;;;;;;6251874;28;20021;-86
2023/04/05 06:21:48;;;;;;;87.83;41.13;;;;;;;;;;6269050;28;20264;-86
2023/04/05 06:24:48;;;;;;;76.83;37.33;;;;;;;;;;6290410;28;20017;-84
2023/04/05 06:27:48;;;;;;;79.30;38.53;;;;;;;;;;6302465;22;20017;-84
2023/04/05 06:30:48;;;;;;;86.73;40.00;;;;;;;;;;6244975;28;20033;-82
